aviador You're here:

KCOE Decoded Metar

COEUR D'ALENE in ID, USA
Report Time2017-05-24 16:56:00
UTC Time2017-05-24 17:53:12
Flight Rules vfr VFR
Wind290° at 15 Gusting to 18 kt
W.Decomp.*RWY 24: 12.9 kt HW 7.7 kt RCW
RWY 20: 4.9 kt HW 14.2 kt RCW
W.Rank290° ranks 29
Current wind is above 290° avg. (6.0)
Visibility9999 m
Phenomena:N/A
Clouds:Broken 070 Hf
Expected CloudBase > 6,400 ft AGL from Temp-Dew spread
Ceiling7,000 ft
Temp13°C (ISA +3)
Dew Point-3°C (33% RH)
AAT5.2°C
QNH1008 hPa
Density Alt2,871 ft
Elevation2,320 ft
Report Wrong Elevation
Raw Report
METAR KCOE 241656Z AUTO 29015G18KT 10SM BKN070 13/M03 A2977 RMK AO2
SLP087 T01281028=

Extra information for KCOE:More info

Metar Taf Metar & Taf Last 4 Metars F.Rules Stats Wind Profile Meteogram Temp Stats Airport Information Weather charts Add Link Nearby VenuesMetar ALERT Operation Metar Decoded Social comments

AIRNAV info for KCOE